createdAt,value
2018-05-21T00:01:56.997Z,99.40
2018-05-21T00:04:25.292Z,99.90
2018-05-21T00:06:53.557Z,99.90
2018-05-21T00:09:21.845Z,99.90
2018-05-21T00:11:49.311Z,99.90
2018-05-21T00:14:16.791Z,99.70
2018-05-21T00:16:44.334Z,99.80
2018-05-21T00:19:11.821Z,99.60
2018-05-21T00:21:39.277Z,99.50
2018-05-21T00:24:06.784Z,99.40
2018-05-21T00:26:34.310Z,99.70
2018-05-21T00:29:01.826Z,99.70
2018-05-21T00:31:29.349Z,99.70
2018-05-21T00:33:56.861Z,99.90
2018-05-21T00:36:24.383Z,99.90
2018-05-21T00:38:51.879Z,99.90
2018-05-21T00:41:19.392Z,99.90
2018-05-21T00:43:46.908Z,99.90
2018-05-21T00:46:14.441Z,99.90
2018-05-21T00:48:41.921Z,99.90
2018-05-21T00:51:09.443Z,99.90
2018-05-21T00:53:36.898Z,99.90
2018-05-21T00:56:04.383Z,99.90
2018-05-21T00:58:31.903Z,99.90
2018-05-21T01:00:59.402Z,99.90
2018-05-21T01:03:26.894Z,99.90
2018-05-21T01:05:55.185Z,99.90
2018-05-21T01:08:22.680Z,99.90
2018-05-21T01:10:50.196Z,99.90
2018-05-21T01:13:17.727Z,99.90
2018-05-21T01:15:46.068Z,99.90
2018-05-21T01:18:13.541Z,99.90
2018-05-21T01:20:41.039Z,99.90
2018-05-21T01:23:08.534Z,99.90
2018-05-21T01:25:36.769Z,99.90
2018-05-21T01:28:04.382Z,99.90
2018-05-21T01:30:31.909Z,99.90
2018-05-21T01:32:59.423Z,99.90
2018-05-21T01:35:26.918Z,99.90
2018-05-21T01:37:54.379Z,99.90
2018-05-21T01:40:21.849Z,99.90
2018-05-21T01:42:49.351Z,99.90
2018-05-21T01:45:16.857Z,99.90
2018-05-21T01:47:44.365Z,99.90
2018-05-21T01:50:11.890Z,99.90
2018-05-21T01:52:39.362Z,99.90
2018-05-21T01:55:06.878Z,99.90
2018-05-21T01:57:34.390Z,99.90
2018-05-21T02:00:01.898Z,99.90
2018-05-21T02:02:29.426Z,99.90
2018-05-21T02:04:57.680Z,99.90
2018-05-21T02:07:25.198Z,99.90
2018-05-21T02:09:52.703Z,99.90
2018-05-21T02:12:20.216Z,99.90
2018-05-21T02:14:47.714Z,99.90
2018-05-21T02:17:15.222Z,99.90
2018-05-21T02:19:42.734Z,99.90
2018-05-21T02:22:10.978Z,99.90
2018-05-21T02:24:38.505Z,99.90
2018-05-21T02:27:06.074Z,99.90
2018-05-21T02:29:33.485Z,99.90
2018-05-21T02:32:01.018Z,99.90
2018-05-21T02:34:28.527Z,99.90
2018-05-21T02:36:56.023Z,99.90
2018-05-21T02:39:23.485Z,99.90
2018-05-21T02:41:50.954Z,99.90
2018-05-21T02:44:18.459Z,99.90
2018-05-21T02:46:45.985Z,99.90
2018-05-21T02:49:13.491Z,99.90
2018-05-21T02:51:40.967Z,99.90
2018-05-21T02:54:08.426Z,99.90
2018-05-21T02:56:35.944Z,99.90
2018-05-21T02:59:03.415Z,99.90
2018-05-21T03:01:30.878Z,99.90
2018-05-21T03:03:58.405Z,99.90
2018-05-21T03:06:26.668Z,99.90
2018-05-21T03:08:54.942Z,99.90
2018-05-21T03:11:23.213Z,99.90
2018-05-21T03:13:50.728Z,99.90
2018-05-21T03:16:18.238Z,99.90
2018-05-21T03:18:46.521Z,99.90
2018-05-21T03:21:14.791Z,99.90
2018-05-21T03:23:43.065Z,99.90
2018-05-21T03:26:11.310Z,99.90
2018-05-21T03:28:38.777Z,99.90
2018-05-21T03:31:06.288Z,99.90
2018-05-21T03:33:33.814Z,99.90
2018-05-21T03:36:02.075Z,99.90
2018-05-21T03:38:29.598Z,99.90
2018-05-21T03:40:57.082Z,99.90
2018-05-21T03:43:24.578Z,99.90
2018-05-21T03:45:52.199Z,99.90
2018-05-21T03:48:19.721Z,99.90
2018-05-21T03:50:47.289Z,99.90
2018-05-21T03:53:14.816Z,99.90
2018-05-21T03:55:43.063Z,99.90
2018-05-21T03:58:22.342Z,99.90
2018-05-21T04:01:01.770Z,99.90
2018-05-21T04:03:41.118Z,99.90
2018-05-21T04:06:09.478Z,99.90
2018-05-21T04:08:37.009Z,99.90
2018-05-21T04:11:05.282Z,99.90
2018-05-21T04:13:32.787Z,99.90
2018-05-21T04:16:00.274Z,99.90
2018-05-21T04:18:27.783Z,99.90
2018-05-21T04:20:55.298Z,99.90
2018-05-21T04:23:22.762Z,99.90
2018-05-21T04:25:50.267Z,99.90
2018-05-21T04:28:17.789Z,99.90
2018-05-21T04:30:46.038Z,99.90
2018-05-21T04:33:13.546Z,99.90
2018-05-21T04:35:41.041Z,99.90
2018-05-21T04:38:09.298Z,99.90
2018-05-21T04:40:36.787Z,99.90
2018-05-21T04:43:04.266Z,99.90
2018-05-21T04:45:32.551Z,98.70
2018-05-21T04:48:00.794Z,98.20
2018-05-21T04:50:28.253Z,98.20
2018-05-21T04:52:55.768Z,98.70
2018-05-21T04:55:23.275Z,98.10
2018-05-21T04:57:50.804Z,98.00
2018-05-21T05:00:18.325Z,96.90
2018-05-21T05:02:46.558Z,96.60
2018-05-21T05:05:14.034Z,96.60
2018-05-21T05:07:42.295Z,94.80
2018-05-21T05:10:09.811Z,94.80
2018-05-21T05:12:37.316Z,94.90
2018-05-21T05:15:04.814Z,93.60
2018-05-21T05:17:32.313Z,91.80
2018-05-21T05:19:59.793Z,90.90
2018-05-21T05:22:28.423Z,88.60
2018-05-21T05:24:55.962Z,88.60
2018-05-21T05:27:23.453Z,84.60
2018-05-21T05:29:50.942Z,81.60
2018-05-21T05:32:18.420Z,78.00
2018-05-21T05:34:45.956Z,78.90
2018-05-21T05:37:13.462Z,72.20
2018-05-21T05:39:40.930Z,72.30
2018-05-21T05:42:08.429Z,68.40
2018-05-21T05:44:35.904Z,65.10
2018-05-21T05:47:04.197Z,66.80
2018-05-21T05:49:31.679Z,66.70
2018-05-21T05:51:59.187Z,59.80
2018-05-21T05:54:26.675Z,60.20
2018-05-21T05:56:54.183Z,56.60
2018-05-21T05:59:21.689Z,54.70
2018-05-21T06:01:49.225Z,50.50
2018-05-21T06:04:17.567Z,52.30
2018-05-21T06:06:45.067Z,52.20
2018-05-21T06:09:13.351Z,53.10
2018-05-21T06:11:40.869Z,53.10
2018-05-21T06:14:08.484Z,47.00
2018-05-21T06:16:36.018Z,46.90
2018-05-21T06:19:04.276Z,51.40
2018-05-21T06:21:31.738Z,51.30
2018-05-21T06:24:00.032Z,45.70
2018-05-21T06:26:28.320Z,46.30
2018-05-21T06:28:55.824Z,46.20
2018-05-21T06:31:23.298Z,49.00
2018-05-21T06:33:50.791Z,47.40
2018-05-21T06:36:18.317Z,46.30
2018-05-21T06:38:45.820Z,45.60
2018-05-21T06:41:13.540Z,43.20
2018-05-21T06:43:41.062Z,42.80
2018-05-21T06:46:08.606Z,44.10
2018-05-21T06:48:36.117Z,43.70
2018-05-21T06:51:04.417Z,40.00
2018-05-21T06:53:31.899Z,39.40
2018-05-21T06:55:59.460Z,42.20
2018-05-21T06:58:26.934Z,40.10
2018-05-21T07:00:55.262Z,44.60
2018-05-21T07:03:22.730Z,44.70
2018-05-21T07:05:50.265Z,43.70
2018-05-21T07:08:18.555Z,43.10
2018-05-21T07:10:46.079Z,43.20
2018-05-21T07:13:13.597Z,41.30
2018-05-21T07:15:41.094Z,42.20
2018-05-21T07:18:08.673Z,40.60
2018-05-21T07:20:36.115Z,41.80
2018-05-21T07:23:03.613Z,45.60
2018-05-21T07:25:31.149Z,41.30
2018-05-21T07:27:59.408Z,42.40
2018-05-21T07:30:27.717Z,38.00
2018-05-21T07:32:55.246Z,37.90
2018-05-21T07:35:22.774Z,39.00
2018-05-21T07:37:50.268Z,40.60
2018-05-21T07:40:18.578Z,39.50
2018-05-21T07:42:46.079Z,39.00
2018-05-21T07:45:13.548Z,41.30
2018-05-21T07:47:41.046Z,39.90
2018-05-21T07:50:08.564Z,41.30
2018-05-21T07:52:36.068Z,47.90
2018-05-21T07:55:03.530Z,37.40
2018-05-21T07:57:31.053Z,42.80
2018-05-21T07:59:59.303Z,43.00
2018-05-21T08:02:26.801Z,43.00
2018-05-21T08:04:54.271Z,40.40
2018-05-21T08:07:21.771Z,39.20
2018-05-21T08:09:49.283Z,39.00
2018-05-21T08:12:16.831Z,36.80
2018-05-21T08:14:44.468Z,40.70
2018-05-21T08:17:11.863Z,39.40
2018-05-21T08:19:39.364Z,37.70
2018-05-21T08:22:06.895Z,38.90
2018-05-21T08:24:34.378Z,38.50
2018-05-21T08:27:02.035Z,40.90
2018-05-21T08:29:29.542Z,41.50
2018-05-21T08:31:57.018Z,37.70
2018-05-21T08:34:24.547Z,37.60
2018-05-21T08:36:52.779Z,39.20
2018-05-21T08:39:20.297Z,39.00
2018-05-21T08:41:47.803Z,39.20
2018-05-21T08:44:15.308Z,39.80
2018-05-21T08:46:42.820Z,42.20
2018-05-21T08:49:10.298Z,37.90
2018-05-21T08:51:38.590Z,40.30
2018-05-21T08:54:06.118Z,40.20
2018-05-21T08:56:33.698Z,40.10
2018-05-21T08:59:01.114Z,38.60
2018-05-21T09:01:28.597Z,40.60
2018-05-21T09:03:56.071Z,41.90
2018-05-21T09:06:24.356Z,42.00
2018-05-21T09:08:51.881Z,42.10
2018-05-21T09:11:19.399Z,40.00
2018-05-21T09:13:47.474Z,42.20
2018-05-21T09:16:14.984Z,44.40
2018-05-21T09:18:42.446Z,46.20
2018-05-21T09:21:12.139Z,49.70
2018-05-21T09:23:40.066Z,49.70
2018-05-21T09:26:07.686Z,46.50
2018-05-21T09:28:35.123Z,48.90
2018-05-21T09:31:02.641Z,49.10
2018-05-21T09:33:30.163Z,49.20
2018-05-21T09:35:58.393Z,49.30
2018-05-21T09:38:25.932Z,49.20
2018-05-21T09:40:53.398Z,49.90
2018-05-21T09:43:20.886Z,52.20
2018-05-21T09:45:48.394Z,53.20
2018-05-21T09:48:15.980Z,51.00
2018-05-21T09:50:43.503Z,52.60
2018-05-21T09:53:11.007Z,53.30
2018-05-21T09:55:38.545Z,50.70
2018-05-21T09:58:06.059Z,52.30
2018-05-21T10:00:34.320Z,50.10
2018-05-21T10:03:01.859Z,50.00
2018-05-21T10:05:29.374Z,51.00
2018-05-21T10:07:56.891Z,50.40
2018-05-21T10:10:24.409Z,50.10
2018-05-21T10:12:51.924Z,53.70
2018-05-21T10:15:20.191Z,50.80
2018-05-21T10:17:48.467Z,55.20
2018-05-21T10:20:16.746Z,54.30
2018-05-21T10:22:45.040Z,53.80
2018-05-21T10:25:12.558Z,53.70
2018-05-21T10:27:40.034Z,50.70
2018-05-21T10:30:08.306Z,51.50
2018-05-21T10:32:36.597Z,52.30
2018-05-21T10:35:04.883Z,52.10
2018-05-21T10:37:32.412Z,52.00
2018-05-21T10:40:00.647Z,52.00
2018-05-21T10:42:28.168Z,52.00
2018-05-21T10:44:55.668Z,51.60
2018-05-21T10:47:23.150Z,51.70
2018-05-21T10:49:50.614Z,53.90
2018-05-21T10:52:18.859Z,50.60
2018-05-21T10:54:47.145Z,51.10
2018-05-21T10:57:14.645Z,51.10
2018-05-21T10:59:42.941Z,51.80
2018-05-21T11:02:10.464Z,51.80
2018-05-21T11:04:38.034Z,53.90
2018-05-21T11:07:05.474Z,54.10
2018-05-21T11:09:33.714Z,53.70
2018-05-21T11:12:01.228Z,53.50
2018-05-21T11:14:28.700Z,50.50
2018-05-21T11:16:56.198Z,51.00
2018-05-21T11:19:23.700Z,51.10
2018-05-21T11:21:51.166Z,52.90
2018-05-21T11:24:18.705Z,55.00
2018-05-21T11:26:46.976Z,51.70
2018-05-21T11:29:15.609Z,52.20
2018-05-21T11:31:43.118Z,52.30
2018-05-21T11:34:11.379Z,53.40
2018-05-21T11:36:38.898Z,53.40
2018-05-21T11:39:06.412Z,51.80
2018-05-21T11:41:34.650Z,53.10
2018-05-21T11:44:02.138Z,53.10
2018-05-21T11:46:30.392Z,53.70
2018-05-21T11:48:57.946Z,54.30
2018-05-21T11:51:25.439Z,54.00
2018-05-21T11:53:53.739Z,49.40
2018-05-21T11:56:21.262Z,49.30
2018-05-21T11:58:49.530Z,50.40
2018-05-21T12:01:17.018Z,50.40
2018-05-21T12:03:44.546Z,49.70
2018-05-21T12:06:12.033Z,52.00
2018-05-21T12:08:39.552Z,51.10
2018-05-21T12:11:07.048Z,52.20
2018-05-21T12:13:34.596Z,56.10
2018-05-21T12:16:02.067Z,51.40
2018-05-21T12:18:29.580Z,53.20
2018-05-21T12:20:57.065Z,52.20
2018-05-21T12:23:25.290Z,52.10
2018-05-21T12:25:52.804Z,52.00
2018-05-21T12:28:21.070Z,51.30
2018-05-21T12:30:49.383Z,52.30
2018-05-21T12:33:16.913Z,52.30
2018-05-21T12:35:45.193Z,52.10
2018-05-21T12:38:13.462Z,51.50
2018-05-21T12:40:43.841Z,52.20
2018-05-21T12:43:11.335Z,52.20
2018-05-21T12:45:39.573Z,50.80
2018-05-21T12:48:07.069Z,50.80
2018-05-21T12:50:35.343Z,52.60
2018-05-21T12:53:03.603Z,52.00
2018-05-21T12:55:31.080Z,51.90
2018-05-21T12:57:59.351Z,51.70
2018-05-21T13:00:27.630Z,51.40
2018-05-21T13:02:55.919Z,52.40
2018-05-21T13:05:23.435Z,52.40
2018-05-21T13:07:50.898Z,54.30
2018-05-21T13:10:18.423Z,54.10
2018-05-21T13:12:45.914Z,52.50
2018-05-21T13:15:13.469Z,53.90
2018-05-21T13:17:40.925Z,51.80
2018-05-21T13:20:08.430Z,53.00
2018-05-21T13:22:35.929Z,51.70
2018-05-21T13:25:03.436Z,49.20
2018-05-21T13:27:31.694Z,53.10
2018-05-21T13:29:59.968Z,51.10
2018-05-21T13:32:27.469Z,51.00
2018-05-21T13:34:55.000Z,55.00
2018-05-21T13:37:23.280Z,51.40
2018-05-21T13:39:50.800Z,51.40
2018-05-21T13:42:18.309Z,50.80
2018-05-21T13:44:45.838Z,51.70
2018-05-21T13:47:14.066Z,50.80
2018-05-21T13:49:41.603Z,50.80
2018-05-21T13:52:09.106Z,51.20
2018-05-21T13:54:36.613Z,51.90
2018-05-21T13:57:04.142Z,51.40
2018-05-21T13:59:31.639Z,53.10
2018-05-21T14:01:59.166Z,50.70
2018-05-21T14:04:27.450Z,52.00
2018-05-21T14:06:55.753Z,50.80
2018-05-21T14:09:23.247Z,50.80
2018-05-21T14:11:50.743Z,52.50
2018-05-21T14:14:18.234Z,49.90
2018-05-21T14:16:45.739Z,49.90
2018-05-21T14:19:13.975Z,50.10
2018-05-21T14:21:41.614Z,50.00
2018-05-21T14:24:09.018Z,50.30
2018-05-21T14:26:36.527Z,50.20
2018-05-21T14:29:04.052Z,49.80
2018-05-21T14:31:32.322Z,51.30
2018-05-21T14:33:59.815Z,51.20
2018-05-21T14:36:27.335Z,50.70
2018-05-21T14:38:54.862Z,51.80
2018-05-21T14:41:22.400Z,49.70
2018-05-21T14:43:49.899Z,50.70
2018-05-21T14:46:17.378Z,51.50
2018-05-21T14:48:45.638Z,49.50
2018-05-21T14:51:13.115Z,49.40
2018-05-21T14:53:41.378Z,48.30
2018-05-21T14:56:09.657Z,49.90
2018-05-21T14:58:37.918Z,49.70
2018-05-21T15:01:05.448Z,49.70
2018-05-21T15:03:32.929Z,50.10
2018-05-21T15:06:00.469Z,51.70
2018-05-21T15:08:27.938Z,52.50
2018-05-21T15:10:55.458Z,51.70
2018-05-21T15:13:22.964Z,50.60
2018-05-21T15:15:50.474Z,51.30
2018-05-21T15:18:17.999Z,51.70
2018-05-21T15:20:46.287Z,50.60
2018-05-21T15:23:13.819Z,50.60
2018-05-21T15:25:41.338Z,50.50
2018-05-21T15:28:08.869Z,51.20
2018-05-21T15:30:36.387Z,52.10
2018-05-21T15:33:03.887Z,52.20
2018-05-21T15:35:31.407Z,50.70
2018-05-21T15:37:58.916Z,50.90
2018-05-21T15:40:26.432Z,52.10
2018-05-21T15:42:54.728Z,51.40
2018-05-21T15:45:22.199Z,51.20
2018-05-21T15:47:49.716Z,51.90
2018-05-21T15:50:17.215Z,51.70
2018-05-21T15:52:44.719Z,51.10
2018-05-21T15:55:12.239Z,51.90
2018-05-21T15:57:39.833Z,51.80
2018-05-21T16:00:07.295Z,53.30
2018-05-21T16:02:34.914Z,50.70
2018-05-21T16:05:02.381Z,51.30
2018-05-21T16:07:29.890Z,52.30
2018-05-21T16:09:58.178Z,52.20
2018-05-21T16:12:26.438Z,52.80
2018-05-21T16:14:54.724Z,51.80
2018-05-21T16:17:22.989Z,51.40
2018-05-21T16:19:51.254Z,52.00
2018-05-21T16:22:18.730Z,52.00
2018-05-21T16:24:46.961Z,51.10
2018-05-21T16:27:14.509Z,51.10
2018-05-21T16:29:42.013Z,52.60
2018-05-21T16:32:10.262Z,53.50
2018-05-21T16:34:37.796Z,53.50
2018-05-21T16:37:05.291Z,54.00
2018-05-21T16:39:32.810Z,52.90
2018-05-21T16:42:00.292Z,53.40
2018-05-21T16:44:27.813Z,53.10
2018-05-21T16:46:55.310Z,52.90
2018-05-21T16:49:23.605Z,53.20
2018-05-21T16:51:51.098Z,53.20
2018-05-21T16:54:18.608Z,53.80
2018-05-21T16:56:46.069Z,53.40
2018-05-21T16:59:13.598Z,53.50
2018-05-21T17:01:41.059Z,54.10
2018-05-21T17:04:08.583Z,53.60
2018-05-21T17:06:36.107Z,54.70
2018-05-21T17:09:03.618Z,54.90
2018-05-21T17:11:31.129Z,55.20
2018-05-21T17:13:59.525Z,55.80
2018-05-21T17:16:26.966Z,55.70
2018-05-21T17:18:55.199Z,56.00
2018-05-21T17:21:22.749Z,56.00
2018-05-21T17:23:50.284Z,56.40
2018-05-21T17:26:17.747Z,56.70
2018-05-21T17:28:45.213Z,57.30
2018-05-21T17:31:12.721Z,57.20
2018-05-21T17:33:40.195Z,57.20
2018-05-21T17:36:08.477Z,58.80
2018-05-21T17:38:36.715Z,58.90
2018-05-21T17:41:04.217Z,58.90
2018-05-21T17:43:31.746Z,58.40
2018-05-21T17:45:59.997Z,58.00
2018-05-21T17:48:27.524Z,58.00
2018-05-21T17:50:55.035Z,58.70
2018-05-21T17:53:22.506Z,58.80
2018-05-21T17:55:50.778Z,59.10
2018-05-21T17:58:19.019Z,59.80
2018-05-21T18:00:46.535Z,59.80
2018-05-21T18:03:14.077Z,60.10
2018-05-21T18:05:41.563Z,60.90
2018-05-21T18:08:09.086Z,61.50
2018-05-21T18:10:37.384Z,60.90
2018-05-21T18:13:04.865Z,60.90
2018-05-21T18:15:32.375Z,61.60
2018-05-21T18:18:00.636Z,61.80
2018-05-21T18:20:28.166Z,61.80
2018-05-21T18:22:55.670Z,62.80
2018-05-21T18:25:23.951Z,64.10
2018-05-21T18:27:52.279Z,63.60
2018-05-21T18:30:20.604Z,64.10
2018-05-21T18:32:48.016Z,64.10
2018-05-21T18:35:16.283Z,65.20
2018-05-21T18:37:43.775Z,65.50
2018-05-21T18:40:11.299Z,65.50
2018-05-21T18:42:39.701Z,66.30
2018-05-21T18:45:07.143Z,66.30
2018-05-21T18:47:34.612Z,66.80
2018-05-21T18:50:02.147Z,67.20
2018-05-21T18:52:29.659Z,67.90
2018-05-21T18:54:57.917Z,68.60
2018-05-21T18:57:25.438Z,68.40
2018-05-21T18:59:52.959Z,68.90
2018-05-21T19:02:20.480Z,69.20
2018-05-21T19:04:47.955Z,69.20
2018-05-21T19:07:16.247Z,71.20
2018-05-21T19:09:44.554Z,71.90
2018-05-21T19:12:12.015Z,71.80
2018-05-21T19:14:39.520Z,72.60
2018-05-21T19:17:07.811Z,73.60
2018-05-21T19:19:36.110Z,74.50
2018-05-21T19:22:03.587Z,74.50
2018-05-21T19:24:31.116Z,75.70
2018-05-21T19:26:58.657Z,78.60
2018-05-21T19:29:26.912Z,79.90
2018-05-21T19:31:54.412Z,79.80
2018-05-21T19:34:21.898Z,82.00
2018-05-21T19:36:49.412Z,81.80
2018-05-21T19:39:17.671Z,80.30
2018-05-21T19:41:45.958Z,79.40
2018-05-21T19:44:14.184Z,82.00
2018-05-21T19:46:41.662Z,82.00
2018-05-21T19:49:09.169Z,80.40
2018-05-21T19:51:36.688Z,82.50
2018-05-21T19:54:04.207Z,82.40
2018-05-21T19:56:31.715Z,85.60
2018-05-21T19:58:59.943Z,89.70
2018-05-21T20:01:27.422Z,89.70
2018-05-21T20:03:54.894Z,90.00
2018-05-21T20:06:23.202Z,88.80
2018-05-21T20:08:50.656Z,88.80
2018-05-21T20:11:18.159Z,85.60
2018-05-21T20:13:45.725Z,84.40
2018-05-21T20:16:13.211Z,86.00
2018-05-21T20:18:41.484Z,86.20
2018-05-21T20:21:09.783Z,85.80
2018-05-21T20:23:37.332Z,85.80
2018-05-21T20:26:05.599Z,89.40
2018-05-21T20:28:33.873Z,91.40
2018-05-21T20:31:02.179Z,90.00
2018-05-21T20:33:29.675Z,90.00
2018-05-21T20:35:57.158Z,88.60
2018-05-21T20:38:25.386Z,90.00
2018-05-21T20:40:52.876Z,89.60
2018-05-21T20:43:20.405Z,90.10
2018-05-21T20:45:47.916Z,90.60
2018-05-21T20:48:16.153Z,91.90
2018-05-21T20:50:44.450Z,92.20
2018-05-21T20:53:11.943Z,92.50
2018-05-21T20:55:39.425Z,93.00
2018-05-21T20:58:06.945Z,92.90
2018-05-21T21:00:34.447Z,93.60
2018-05-21T21:03:01.910Z,93.50
2018-05-21T21:05:29.431Z,93.90
2018-05-21T21:07:56.911Z,94.30
2018-05-21T21:10:24.378Z,94.60
2018-05-21T21:12:51.896Z,95.10
2018-05-21T21:15:19.399Z,95.40
2018-05-21T21:17:46.910Z,95.30
2018-05-21T21:20:14.394Z,95.70
2018-05-21T21:22:41.929Z,95.40
2018-05-21T21:25:09.468Z,95.60
2018-05-21T21:27:37.756Z,96.60
2018-05-21T21:30:06.008Z,96.90
2018-05-21T21:32:33.587Z,96.90
2018-05-21T21:35:00.987Z,97.20
2018-05-21T21:37:28.504Z,97.20
2018-05-21T21:39:56.730Z,97.70
2018-05-21T21:42:24.997Z,98.00
2018-05-21T21:44:52.502Z,98.00
2018-05-21T21:47:20.784Z,98.00
2018-05-21T21:49:49.077Z,97.70
2018-05-21T21:52:16.573Z,97.60
2018-05-21T21:54:44.039Z,98.00
2018-05-21T21:57:11.569Z,98.30
2018-05-21T21:59:39.075Z,98.50
2018-05-21T22:02:07.327Z,98.90
2018-05-21T22:04:34.832Z,98.70
2018-05-21T22:07:02.352Z,99.00
2018-05-21T22:09:29.857Z,99.20
2018-05-21T22:11:57.367Z,99.20
2018-05-21T22:14:24.888Z,99.60
2018-05-21T22:16:52.420Z,99.60
2018-05-21T22:19:19.933Z,99.60
2018-05-21T22:21:47.406Z,99.00
2018-05-21T22:24:15.674Z,98.80
2018-05-21T22:26:43.201Z,98.70
2018-05-21T22:29:10.741Z,98.80
2018-05-21T22:31:38.282Z,97.90
2018-05-21T22:34:05.802Z,96.90
2018-05-21T22:36:33.317Z,95.90
2018-05-21T22:39:00.822Z,95.90
2018-05-21T22:41:28.339Z,95.80
2018-05-21T22:43:55.801Z,96.20
2018-05-21T22:46:23.286Z,96.00
2018-05-21T22:48:50.782Z,97.00
2018-05-21T22:51:19.011Z,97.90
2018-05-21T22:53:46.539Z,97.90
2018-05-21T22:56:14.057Z,98.00
2018-05-21T22:58:41.567Z,98.10
2018-05-21T23:01:09.064Z,97.60
2018-05-21T23:03:36.531Z,96.60
2018-05-21T23:06:04.819Z,96.00
2018-05-21T23:08:33.122Z,96.30
2018-05-21T23:11:00.588Z,96.30
2018-05-21T23:13:28.104Z,97.20
2018-05-21T23:15:56.367Z,97.90
2018-05-21T23:18:24.662Z,98.60
2018-05-21T23:20:52.928Z,99.10
2018-05-21T23:23:21.201Z,99.30
2018-05-21T23:25:49.464Z,99.30
2018-05-21T23:28:16.966Z,99.30
2018-05-21T23:30:44.481Z,99.80
2018-05-21T23:33:12.772Z,99.90
2018-05-21T23:35:40.999Z,99.90
2018-05-21T23:38:08.542Z,99.90
2018-05-21T23:40:36.014Z,99.90
2018-05-21T23:43:04.267Z,99.90
2018-05-21T23:45:31.786Z,99.90
2018-05-21T23:47:59.314Z,99.90
2018-05-21T23:50:26.819Z,99.90
2018-05-21T23:52:55.095Z,99.90
2018-05-21T23:55:23.323Z,99.90
2018-05-21T23:57:50.839Z,99.90
